Time;durP1;ratioP1;P1;durP2;ratioP2;P2;SDS_P1;SDS_P2;PMS_P1;PMS_P2;Temp;Humidity;BMP_temperature;BMP_pressure;BME280_temperature;BME280_humidity;BME280_pressure;Samples;Min_cycle;Max_cycle;Signal;HPM_P1;HPM_P2
2021/08/12 00:03:37;;;;;;;1.42;0.80;;;25.20;99.90;;;;;;20635077;23;20618;-81
2021/08/12 00:13:42;;;;;;;2.00;1.20;;;25.10;99.90;;;;;;20530299;28;20208;-82
2021/08/12 00:23:46;;;;;;;2.58;1.20;;;25.10;99.90;;;;;;20541296;28;20224;-81
2021/08/12 00:33:51;;;;;;;1.13;1.02;;;25.00;99.90;;;;;;20585504;28;20325;-80
2021/08/12 00:43:55;;;;;;;3.63;1.60;;;24.70;99.90;;;;;;20700516;28;20304;-86
2021/08/12 00:54:01;;;;;;;3.05;1.35;;;24.70;99.90;;;;;;20702391;28;20241;-86
2021/08/12 01:04:05;;;;;;;1.02;0.90;;;24.60;99.90;;;;;;20674788;28;20223;-81
2021/08/12 01:14:23;;;;;;;1.05;0.95;;;24.50;99.90;;;;;;20619745;28;20211;-82
2021/08/12 01:24:32;;;;;;;1.30;0.93;;;24.50;99.90;;;;;;20618852;28;20238;-82
2021/08/12 01:35:00;;;;;;;0.82;0.82;;;24.20;99.90;;;;;;20644768;28;20284;-82
2021/08/12 01:45:05;;;;;;;1.85;0.93;;;24.20;99.90;;;;;;20696430;28;20423;-85
2021/08/12 01:55:11;;;;;;;1.85;0.98;;;24.10;99.90;;;;;;20699411;28;20565;-85
2021/08/12 02:05:16;;;;;;;1.00;0.90;;;24.60;99.90;;;;;;20680918;28;20720;-83
2021/08/12 02:15:21;;;;;;;1.15;1.05;;;24.80;99.90;;;;;;20615770;28;20195;-82
2021/08/12 02:25:29;;;;;;;0.95;0.77;;;24.80;99.90;;;;;;20615347;28;20224;-80
2021/08/12 02:35:36;;;;;;;3.40;0.93;;;25.00;99.90;;;;;;20650987;28;20421;-80
2021/08/12 02:45:42;;;;;;;1.17;1.08;;;24.90;99.90;;;;;;20695630;28;20230;-81
2021/08/12 02:55:48;;;;;;;1.98;1.20;;;24.40;99.90;;;;;;20692745;28;20495;-82
2021/08/12 03:05:52;;;;;;;1.90;0.93;;;24.10;99.90;;;;;;20670950;23;20589;-84
2021/08/12 03:15:57;;;;;;;1.55;1.25;;;24.00;99.90;;;;;;20613247;28;20200;-83
2021/08/12 03:26:01;;;;;;;1.98;1.40;;;24.00;99.90;;;;;;20631220;28;20306;-83
2021/08/12 03:36:06;;;;;;;3.40;0.95;;;23.90;99.90;;;;;;20630850;28;20242;-81
2021/08/12 03:46:09;;;;;;;4.80;1.73;;;23.80;99.90;;;;;;20638129;28;20446;-81
2021/08/12 03:56:15;;;;;;;1.63;1.52;;;24.00;99.90;;;;;;20695420;28;20230;-84
2021/08/12 04:06:18;;;;;;;1.47;1.17;;;23.90;99.90;;;;;;20679826;28;20967;-85
2021/08/12 04:16:23;;;;;;;0.70;0.70;;;23.80;99.90;;;;;;20621117;28;20195;-86
2021/08/12 04:26:28;;;;;;;1.88;1.25;;;23.80;99.90;;;;;;20621005;28;20247;-84
2021/08/12 04:36:33;;;;;;;1.55;1.00;;;23.60;99.90;;;;;;20619092;28;20619;-85
2021/08/12 04:46:37;;;;;;;1.48;1.23;;;23.70;99.90;;;;;;20618491;28;20235;-85
2021/08/12 04:56:42;;;;;;;0.80;0.80;;;23.50;99.90;;;;;;20599909;28;20199;-87
2021/08/12 05:06:46;;;;;;;2.87;1.67;;;23.50;99.90;;;;;;20562552;28;20731;-86
2021/08/12 05:16:51;;;;;;;1.13;1.03;;;23.40;99.90;;;;;;20523156;28;20199;-85
2021/08/12 05:26:55;;;;;;;1.85;1.13;;;23.30;99.90;;;;;;20540915;28;20278;-88
2021/08/12 05:37:00;;;;;;;1.27;1.03;;;23.20;99.90;;;;;;20535350;28;20433;-81
2021/08/12 05:47:04;;;;;;;13.43;2.40;;;23.40;99.90;;;;;;20537861;28;20239;-81
2021/08/12 05:57:09;;;;;;;2.08;1.38;;;23.40;99.90;;;;;;20537056;28;20200;-82
2021/08/12 06:07:16;;;;;;;1.02;0.93;;;23.70;99.90;;;;;;20573821;28;20232;-83
2021/08/12 06:17:21;;;;;;;5.22;2.00;;;24.20;99.90;;;;;;20584155;28;21084;-82
2021/08/12 06:27:26;;;;;;;1.65;1.55;;;24.60;99.90;;;;;;20625294;28;20255;-85
2021/08/12 06:37:31;;;;;;;1.60;1.42;;;25.20;99.90;;;;;;20642214;28;20578;-83
2021/08/12 06:47:37;;;;;;;1.90;1.40;;;25.50;99.90;;;;;;20632657;28;20520;-80
2021/08/12 06:57:42;;;;;;;3.78;1.88;;;25.50;99.90;;;;;;20627142;28;20666;-85
2021/08/12 07:07:46;;;;;;;3.58;1.92;;;26.00;99.90;;;;;;20636073;28;20224;-91
2021/08/12 07:17:52;;;;;;;2.35;1.13;;;26.20;99.90;;;;;;20629028;28;20933;-84
2021/08/12 07:27:57;;;;;;;1.45;1.35;;;26.60;99.90;;;;;;20626352;28;20274;-77
2021/08/12 07:38:02;;;;;;;1.88;1.70;;;26.50;99.90;;;;;;20619386;28;20290;-89
2021/08/12 07:48:06;;;;;;;1.95;1.23;;;26.80;99.90;;;;;;20669802;28;20199;-83
2021/08/12 07:58:11;;;;;;;3.05;2.45;;;26.80;99.90;;;;;;20668460;28;20211;-84
2021/08/12 08:08:15;;;;;;;1.25;1.08;;;26.80;99.90;;;;;;20597827;28;20232;-85
2021/08/12 08:18:20;;;;;;;2.33;0.85;;;27.30;99.90;;;;;;20575905;28;20187;-91
2021/08/12 08:28:24;;;;;;;1.15;0.98;;;27.40;99.90;;;;;;20569706;28;20200;-74
2021/08/12 08:38:32;;;;;;;1.05;0.95;;;27.30;99.90;;;;;;20575486;28;20195;-89
2021/08/12 08:48:36;;;;;;;1.73;1.52;;;27.30;99.90;;;;;;20591834;28;20259;-88
2021/08/12 08:58:42;;;;;;;3.30;0.82;;;27.60;99.90;;;;;;20541029;28;20220;-83
2021/08/12 09:08:47;;;;;;;3.30;1.88;;;27.50;99.90;;;;;;20620887;28;20314;-82
2021/08/12 09:19:12;;;;;;;1.50;1.33;;;28.00;99.90;;;;;;20604630;28;20258;-82
2021/08/12 09:29:29;;;;;;;0.95;0.68;;;28.20;99.90;;;;;;20585969;28;20834;-83
2021/08/12 09:39:37;;;;;;;5.15;1.98;;;28.10;99.90;;;;;;20602752;28;20228;-85
2021/08/12 09:49:44;;;;;;;2.97;1.25;;;27.70;99.90;;;;;;20538732;28;20214;-80
2021/08/12 09:59:50;;;;;;;1.23;0.82;;;28.40;99.90;;;;;;20528122;28;20279;-83
2021/08/12 10:09:57;;;;;;;3.10;1.38;;;29.20;99.90;;;;;;20512033;28;20215;-82
2021/08/12 10:20:02;;;;;;;7.07;2.30;;;29.00;99.90;;;;;;20553675;28;20215;-80
2021/08/12 10:30:08;;;;;;;5.53;2.50;;;29.20;99.90;;;;;;20539862;28;20180;-79
2021/08/12 10:40:22;;;;;;;2.05;1.85;;;29.30;99.90;;;;;;20567694;28;20215;-74
2021/08/12 10:50:40;;;;;;;2.67;1.98;;;29.00;99.90;;;;;;20527192;28;20188;-89
2021/08/12 11:00:49;;;;;;;1.67;0.80;;;29.30;99.90;;;;;;20547901;28;20235;-88
2021/08/12 11:10:53;;;;;;;4.30;1.77;;;29.50;99.90;;;;;;20588342;28;20508;-89
2021/08/12 11:20:59;;;;;;;3.08;1.73;;;29.80;99.90;;;;;;20638570;28;20664;-80
2021/08/12 11:31:09;;;;;;;5.63;1.90;;;30.70;99.90;;;;;;20622451;28;20195;-73
2021/08/12 11:41:27;;;;;;;2.13;1.65;;;30.40;99.90;;;;;;20643837;28;20267;-76
2021/08/12 11:51:35;;;;;;;1.65;1.55;;;30.80;99.90;;;;;;20617553;28;20215;-74
2021/08/12 12:01:41;;;;;;;2.58;2.10;;;31.00;99.90;;;;;;20701577;28;20230;-75
2021/08/12 12:11:51;;;;;;;5.38;1.70;;;31.30;99.90;;;;;;20632112;28;21134;-83
2021/08/12 12:21:56;;;;;;;6.88;4.72;;;32.20;99.90;;;;;;20625094;28;20230;-80
2021/08/12 12:32:01;;;;;;;2.42;1.92;;;31.90;99.90;;;;;;20603723;28;20230;-79
2021/08/12 12:42:06;;;;;;;2.20;1.48;;;31.90;99.90;;;;;;20616125;28;20231;-80
2021/08/12 12:52:13;;;;;;;4.10;1.88;;;33.30;99.90;;;;;;20617162;28;20211;-76
2021/08/12 13:02:19;;;;;;;2.33;1.63;;;33.70;99.90;;;;;;20597946;28;20346;-84
2021/08/12 13:12:28;;;;;;;4.05;2.00;;;33.90;99.90;;;;;;20598228;28;20238;-79
2021/08/12 13:22:40;;;;;;;1.45;1.05;;;34.10;99.90;;;;;;20631114;28;20219;-79
2021/08/12 13:32:43;;;;;;;7.10;1.73;;;34.80;99.90;;;;;;20638941;28;20250;-83
2021/08/12 13:42:53;;;;;;;1.92;1.63;;;34.60;99.90;;;;;;20599071;28;20223;-79
2021/08/12 14:14:49;;;;;;;2.10;1.75;;;35.80;99.90;;;;;;20613084;28;20227;-82
2021/08/12 14:24:57;;;;;;;4.40;1.67;;;33.90;99.90;;;;;;20616613;28;20321;-83
2021/08/12 14:35:01;;;;;;;3.65;1.88;;;33.20;99.90;;;;;;20621163;23;20735;-81
2021/08/12 14:45:09;;;;;;;1.77;1.25;;;32.20;99.90;;;;;;20622339;28;20379;-83
2021/08/12 14:55:20;;;;;;;6.05;1.60;;;32.20;99.90;;;;;;20611062;28;20192;-78
2021/08/12 15:05:27;;;;;;;2.53;2.13;;;31.30;99.90;;;;;;20615760;28;20666;-76
2021/08/12 15:15:31;;;;;;;5.22;1.40;;;31.10;99.90;;;;;;20629607;28;20947;-84
2021/08/12 15:25:46;;;;;;;2.67;1.83;;;31.90;99.90;;;;;;20611529;28;20227;-83
2021/08/12 15:35:52;;;;;;;1.52;1.30;;;32.40;99.90;;;;;;20592569;28;20223;-79
2021/08/12 15:45:58;;;;;;;2.00;1.27;;;34.70;99.90;;;;;;20608060;28;20496;-80
2021/08/12 15:56:03;;;;;;;2.38;2.17;;;33.30;99.90;;;;;;20602040;28;20374;-79
2021/08/12 16:06:09;;;;;;;1.45;1.02;;;31.80;99.90;;;;;;20621812;28;20246;-84
2021/08/12 16:16:13;;;;;;;1.23;1.10;;;31.00;99.90;;;;;;20611450;28;20659;-82
2021/08/12 16:26:19;;;;;;;1.38;1.00;;;31.50;99.90;;;;;;20589181;28;20773;-79
2021/08/12 16:36:22;;;;;;;2.42;2.20;;;31.20;99.90;;;;;;20601097;28;20251;-80
2021/08/12 16:46:29;;;;;;;1.67;1.45;;;31.20;99.90;;;;;;20620360;28;20226;-79
2021/08/12 16:56:33;;;;;;;1.55;1.20;;;31.30;99.90;;;;;;20623844;28;20207;-80
2021/08/12 17:06:38;;;;;;;1.63;1.45;;;31.40;99.90;;;;;;20651826;28;20695;-77
2021/08/12 17:16:42;;;;;;;2.08;1.02;;;31.00;99.90;;;;;;20611544;28;20217;-81
2021/08/12 17:26:47;;;;;;;3.10;1.45;;;30.40;99.90;;;;;;20600064;28;20638;-80
2021/08/12 17:36:51;;;;;;;1.67;1.33;;;30.70;99.90;;;;;;20615258;28;20302;-80
2021/08/12 17:47:00;;;;;;;3.13;2.47;;;30.30;99.90;;;;;;20594136;28;20216;-76
2021/08/12 17:57:05;;;;;;;3.38;1.33;;;30.20;99.90;;;;;;20616056;28;20204;-80
2021/08/12 18:07:10;;;;;;;3.67;2.00;;;30.00;99.90;;;;;;20614461;28;20215;-79
2021/08/12 18:17:15;;;;;;;7.47;1.55;;;29.50;99.90;;;;;;20598099;28;20555;-77
2021/08/12 18:27:21;;;;;;;1.65;1.38;;;28.80;99.90;;;;;;20629460;28;20258;-79
2021/08/12 18:37:27;;;;;;;3.97;3.42;;;28.20;99.90;;;;;;20682747;28;20195;-81
2021/08/12 18:47:32;;;;;;;3.88;1.90;;;28.00;99.90;;;;;;20649213;28;20642;-80
2021/08/12 18:57:36;;;;;;;1.98;1.70;;;27.70;99.90;;;;;;20602975;28;20212;-79
2021/08/12 19:07:41;;;;;;;1.75;1.60;;;27.70;99.90;;;;;;20623541;28;20254;-82
2021/08/12 19:17:45;;;;;;;2.80;2.08;;;27.30;99.90;;;;;;20622344;28;20210;-76
2021/08/12 19:27:50;;;;;;;5.90;2.22;;;26.90;99.90;;;;;;20603113;28;20238;-76
2021/08/12 19:37:58;;;;;;;2.13;1.58;;;27.00;99.90;;;;;;20595784;28;20215;-80
2021/08/12 19:48:04;;;;;;;2.95;2.25;;;26.90;99.90;;;;;;20557298;28;20223;-79
2021/08/12 19:58:07;;;;;;;1.85;1.02;;;26.80;99.90;;;;;;20581680;28;20282;-87
2021/08/12 20:08:17;;;;;;;13.75;2.38;;;26.80;99.90;;;;;;20572043;28;20220;-78
2021/08/12 20:18:20;;;;;;;1.77;1.42;;;26.50;99.90;;;;;;20573890;28;20219;-77
2021/08/12 20:28:25;;;;;;;10.27;1.70;;;25.80;99.90;;;;;;20625542;28;20269;-83
2021/08/12 20:38:29;;;;;;;0.77;0.77;;;25.90;99.90;;;;;;20635151;28;20471;-78
2021/08/12 20:48:36;;;;;;;5.82;2.35;;;25.90;99.90;;;;;;20617459;28;20223;-78
2021/08/12 20:58:40;;;;;;;3.05;1.95;;;26.00;99.90;;;;;;20600754;28;20195;-82
2021/08/12 21:08:46;;;;;;;1.90;1.75;;;25.60;99.90;;;;;;20613893;28;20227;-83
2021/08/12 21:18:50;;;;;;;1.40;0.75;;;25.50;99.90;;;;;;20649117;28;20191;-82
2021/08/12 21:28:55;;;;;;;17.23;1.65;;;25.30;99.90;;;;;;20688257;28;20253;-82
2021/08/12 21:38:59;;;;;;;1.13;1.02;;;25.30;99.90;;;;;;20632739;28;20200;-81
2021/08/12 21:49:05;;;;;;;2.20;1.85;;;25.20;99.90;;;;;;20625342;28;20234;-85
2021/08/12 21:59:08;;;;;;;2.30;1.70;;;24.90;99.90;;;;;;20616528;28;20195;-84
2021/08/12 22:09:13;;;;;;;2.60;1.83;;;24.90;99.90;;;;;;20670718;28;20254;-84
2021/08/12 22:19:17;;;;;;;1.67;1.20;;;24.70;99.90;;;;;;20697649;28;20202;-85
2021/08/12 22:29:23;;;;;;;1.63;0.80;;;24.70;99.90;;;;;;20695833;28;20320;-83
2021/08/12 22:39:27;;;;;;;1.92;1.27;;;24.40;99.90;;;;;;20679497;28;20672;-83
2021/08/12 22:49:32;;;;;;;2.70;2.22;;;24.40;99.90;;;;;;20688139;28;20263;-79
2021/08/12 22:59:35;;;;;;;1.48;1.30;;;24.40;99.90;;;;;;20646496;28;20196;-80
2021/08/12 23:09:40;;;;;;;2.40;1.60;;;24.20;99.90;;;;;;20657528;28;20497;-79
2021/08/12 23:19:45;;;;;;;1.23;1.13;;;24.10;99.90;;;;;;20660826;28;20539;-80
2021/08/12 23:29:50;;;;;;;9.38;1.77;;;23.90;99.90;;;;;;20655267;28;20243;-83
2021/08/12 23:39:53;;;;;;;1.10;0.83;;;23.90;99.90;;;;;;20639297;28;20203;-84
2021/08/12 23:49:58;;;;;;;3.40;1.43;;;23.40;99.90;;;;;;20623427;28;20223;-84
